Time;durP1;ratioP1;P1;durP2;ratioP2;P2;SDS_P1;SDS_P2;PMS_P1;PMS_P2;Temp;Humidity;BMP_temperature;BMP_pressure;BME280_temperature;BME280_humidity;BME280_pressure;Samples;Min_cycle;Max_cycle;Signal;HPM_P1;HPM_P2
2021/10/16 00:00:13;;;;;;;5.72;2.15;;;;;;;;;;5074323;28;20060;-64
2021/10/16 00:02:39;;;;;;;12.55;2.28;;;;;;;;;;5074798;28;20044;-64
2021/10/16 00:05:05;;;;;;;6.43;2.17;;;;;;;;;;5056848;28;20021;-64
2021/10/16 00:07:32;;;;;;;7.35;2.05;;;;;;;;;;5074594;28;20024;-64
2021/10/16 00:09:59;;;;;;;10.68;1.77;;;;;;;;;;5074811;28;20017;-64
2021/10/16 00:12:25;;;;;;;7.07;1.85;;;;;;;;;;5074634;28;20051;-64
2021/10/16 00:14:51;;;;;;;6.88;1.92;;;;;;;;;;5074324;28;20021;-65
2021/10/16 00:17:17;;;;;;;7.18;2.22;;;;;;;;;;5056480;28;20024;-64
2021/10/16 00:19:43;;;;;;;5.18;1.90;;;;;;;;;;5074458;28;20058;-64
2021/10/16 00:22:10;;;;;;;3.33;1.42;;;;;;;;;;5056393;28;20388;-63
2021/10/16 00:24:36;;;;;;;6.88;1.63;;;;;;;;;;5074491;28;20034;-65
2021/10/16 00:27:02;;;;;;;5.47;1.65;;;;;;;;;;5055838;28;20033;-64
2021/10/16 00:29:28;;;;;;;4.75;1.73;;;;;;;;;;5074301;28;20476;-62
2021/10/16 00:31:54;;;;;;;7.13;2.00;;;;;;;;;;5074455;28;20107;-62
2021/10/16 00:34:20;;;;;;;5.15;1.80;;;;;;;;;;5074138;28;20016;-63
2021/10/16 00:36:46;;;;;;;8.15;2.25;;;;;;;;;;5056179;28;20043;-63
2021/10/16 00:39:12;;;;;;;4.07;1.67;;;;;;;;;;5074124;28;20521;-63
2021/10/16 00:41:38;;;;;;;5.20;1.75;;;;;;;;;;5074159;28;20027;-62
2021/10/16 00:44:11;;;;;;;4.10;1.40;;;;;;;;;;5074293;28;20052;-63
2021/10/16 00:46:37;;;;;;;8.65;1.92;;;;;;;;;;5074011;28;20754;-62
2021/10/16 00:49:03;;;;;;;2.80;1.30;;;;;;;;;;5073920;28;20032;-62
2021/10/16 00:51:29;;;;;;;4.22;1.75;;;;;;;;;;5073756;28;20063;-62
2021/10/16 00:53:55;;;;;;;10.13;1.92;;;;;;;;;;5073850;28;20107;-62
2021/10/16 00:56:21;;;;;;;4.18;1.80;;;;;;;;;;5069778;28;20021;-62
2021/10/16 00:58:47;;;;;;;5.57;1.88;;;;;;;;;;5053689;28;20049;-62
2021/10/16 01:01:13;;;;;;;2.83;1.50;;;;;;;;;;5053665;28;20036;-62
2021/10/16 01:03:39;;;;;;;6.82;1.60;;;;;;;;;;5053641;28;20017;-62
2021/10/16 01:06:05;;;;;;;3.47;1.50;;;;;;;;;;5053341;28;20040;-62
2021/10/16 01:08:31;;;;;;;8.38;1.80;;;;;;;;;;5053465;28;20028;-62
2021/10/16 01:10:58;;;;;;;9.23;2.00;;;;;;;;;;5053551;28;20063;-62
2021/10/16 01:13:26;;;;;;;6.53;1.70;;;;;;;;;;5070464;28;20039;-62
2021/10/16 01:15:53;;;;;;;3.03;1.52;;;;;;;;;;5073276;28;20016;-64
2021/10/16 01:18:20;;;;;;;4.63;1.60;;;;;;;;;;5073263;28;20696;-62
2021/10/16 01:20:49;;;;;;;4.25;1.67;;;;;;;;;;5073203;28;20036;-63
2021/10/16 01:23:16;;;;;;;4.57;1.70;;;;;;;;;;5073350;28;20024;-62
2021/10/16 01:25:42;;;;;;;4.15;1.70;;;;;;;;;;5073325;28;20028;-62
2021/10/16 01:28:10;;;;;;;8.20;1.80;;;;;;;;;;5073225;28;20040;-64
2021/10/16 01:30:40;;;;;;;6.13;1.80;;;;;;;;;;5072264;28;20079;-62
2021/10/16 01:33:10;;;;;;;6.68;1.70;;;;;;;;;;5073213;28;20017;-63
2021/10/16 01:35:36;;;;;;;5.97;1.60;;;;;;;;;;5073052;28;20383;-66
2021/10/16 01:38:02;;;;;;;9.02;1.92;;;;;;;;;;5072995;28;20056;-63
2021/10/16 01:40:28;;;;;;;5.35;1.50;;;;;;;;;;5073073;28;20161;-62
2021/10/16 01:42:54;;;;;;;4.72;1.67;;;;;;;;;;5073019;28;20035;-62
2021/10/16 01:45:20;;;;;;;4.55;1.60;;;;;;;;;;5072819;28;20107;-62
2021/10/16 01:47:46;;;;;;;9.35;1.83;;;;;;;;;;5072673;28;20078;-63
2021/10/16 01:50:12;;;;;;;9.88;1.75;;;;;;;;;;5073018;28;20020;-63
2021/10/16 01:52:38;;;;;;;8.45;2.05;;;;;;;;;;5072971;28;20028;-62
2021/10/16 01:55:05;;;;;;;4.85;1.80;;;;;;;;;;5072858;28;20017;-62
2021/10/16 01:57:31;;;;;;;4.93;1.48;;;;;;;;;;5072777;28;20025;-64
2021/10/16 01:59:56;;;;;;;7.15;1.70;;;;;;;;;;5072689;28;20101;-62
2021/10/16 02:02:22;;;;;;;9.20;1.95;;;;;;;;;;5071964;28;20047;-62
2021/10/16 02:04:48;;;;;;;11.80;1.70;;;;;;;;;;5054833;28;20028;-63
2021/10/16 02:07:14;;;;;;;6.35;1.63;;;;;;;;;;5072648;28;20420;-62
2021/10/16 02:09:40;;;;;;;13.80;1.80;;;;;;;;;;5072888;28;20111;-63
2021/10/16 02:12:06;;;;;;;11.70;1.70;;;;;;;;;;5072719;28;20095;-62
2021/10/16 02:14:32;;;;;;;8.10;2.22;;;;;;;;;;5072787;28;20443;-64
2021/10/16 02:16:58;;;;;;;7.97;1.80;;;;;;;;;;5072825;28;20028;-63
2021/10/16 02:19:24;;;;;;;7.10;1.48;;;;;;;;;;5072525;28;20025;-62
2021/10/16 02:21:50;;;;;;;11.30;1.77;;;;;;;;;;5072700;28;20031;-62
2021/10/16 02:24:16;;;;;;;8.18;1.88;;;;;;;;;;5072518;28;20024;-62
2021/10/16 02:26:42;;;;;;;7.68;1.80;;;;;;;;;;5072556;28;20036;-62
2021/10/16 02:29:08;;;;;;;11.02;1.80;;;;;;;;;;5070581;28;20448;-64
2021/10/16 02:31:34;;;;;;;9.02;1.70;;;;;;;;;;5072786;28;20078;-62
2021/10/16 02:34:00;;;;;;;6.32;1.60;;;;;;;;;;5072433;28;20464;-63
2021/10/16 02:36:26;;;;;;;6.40;1.60;;;;;;;;;;5072272;28;20025;-62
2021/10/16 02:38:52;;;;;;;6.43;2.03;;;;;;;;;;5054460;28;20033;-62
2021/10/16 02:41:18;;;;;;;6.40;1.65;;;;;;;;;;5072450;28;20039;-64
2021/10/16 02:43:44;;;;;;;5.88;1.42;;;;;;;;;;5054708;28;20025;-63
2021/10/16 02:46:10;;;;;;;7.50;1.60;;;;;;;;;;5071557;28;20077;-63
2021/10/16 02:48:36;;;;;;;12.15;1.73;;;;;;;;;;5072111;28;20025;-63
2021/10/16 02:51:02;;;;;;;11.20;1.90;;;;;;;;;;5072312;28;20392;-65
2021/10/16 02:53:28;;;;;;;6.07;1.88;;;;;;;;;;5072214;28;20056;-63
2021/10/16 02:55:54;;;;;;;6.45;1.90;;;;;;;;;;5072146;28;20393;-64
2021/10/16 02:58:20;;;;;;;18.10;1.95;;;;;;;;;;5073020;28;20457;-62
2021/10/16 03:00:46;;;;;;;25.33;2.47;;;;;;;;;;5075859;28;20032;-62
2021/10/16 03:03:12;;;;;;;13.45;1.80;;;;;;;;;;5076088;28;20029;-62
2021/10/16 03:05:38;;;;;;;9.98;2.30;;;;;;;;;;5075815;28;20469;-62
2021/10/16 03:08:04;;;;;;;9.18;1.50;;;;;;;;;;5075811;28;20453;-62
2021/10/16 03:10:30;;;;;;;6.13;1.83;;;;;;;;;;5075739;28;20024;-62
2021/10/16 03:12:56;;;;;;;5.75;1.90;;;;;;;;;;5075722;28;20123;-63
2021/10/16 03:15:22;;;;;;;12.93;2.20;;;;;;;;;;5074850;28;20040;-63
2021/10/16 03:17:48;;;;;;;20.45;2.10;;;;;;;;;;5075708;28;20047;-63
2021/10/16 03:20:14;;;;;;;5.78;1.55;;;;;;;;;;5057766;28;20078;-66
2021/10/16 03:22:40;;;;;;;14.52;2.03;;;;;;;;;;5075647;28;20516;-62
2021/10/16 03:25:06;;;;;;;5.63;1.63;;;;;;;;;;5075593;28;20021;-62
2021/10/16 03:27:32;;;;;;;6.03;1.90;;;;;;;;;;5075567;28;20100;-63
2021/10/16 03:29:58;;;;;;;6.95;1.77;;;;;;;;;;5075397;28;20107;-64
2021/10/16 03:32:24;;;;;;;7.88;1.90;;;;;;;;;;5074712;28;20433;-65
2021/10/16 03:34:50;;;;;;;6.20;1.80;;;;;;;;;;5075318;28;20032;-62
2021/10/16 03:37:16;;;;;;;7.65;1.95;;;;;;;;;;5057220;28;20036;-63
2021/10/16 03:39:42;;;;;;;4.88;1.35;;;;;;;;;;5075136;28;20492;-63
2021/10/16 03:42:08;;;;;;;7.35;1.88;;;;;;;;;;5075298;28;20024;-62
2021/10/16 03:44:34;;;;;;;6.55;1.95;;;;;;;;;;5075046;28;20146;-62
2021/10/16 03:47:00;;;;;;;6.72;1.88;;;;;;;;;;5075021;28;20104;-63
2021/10/16 03:49:26;;;;;;;8.48;1.85;;;;;;;;;;5075221;28;20028;-63
2021/10/16 03:51:52;;;;;;;7.57;1.58;;;;;;;;;;5075175;28;20058;-62
2021/10/16 03:54:18;;;;;;;4.20;1.40;;;;;;;;;;5074895;28;20353;-63
2021/10/16 03:56:44;;;;;;;6.60;1.63;;;;;;;;;;5057210;28;20074;-62
2021/10/16 03:59:10;;;;;;;8.43;1.90;;;;;;;;;;5074746;28;20083;-64
2021/10/16 04:01:36;;;;;;;3.65;1.50;;;;;;;;;;5074727;28;20472;-63
2021/10/16 04:04:01;;;;;;;5.85;1.50;;;;;;;;;;5069217;28;20021;-62
2021/10/16 04:06:28;;;;;;;8.00;1.80;;;;;;;;;;5054848;28;20032;-63
2021/10/16 04:08:53;;;;;;;7.85;1.50;;;;;;;;;;5054257;28;20481;-63
2021/10/16 04:11:19;;;;;;;2.97;1.52;;;;;;;;;;5054703;28;20035;-63
2021/10/16 04:13:45;;;;;;;13.40;1.52;;;;;;;;;;5054820;28;20124;-62
2021/10/16 04:16:11;;;;;;;4.50;1.45;;;;;;;;;;5054519;28;20021;-62
2021/10/16 04:18:37;;;;;;;7.13;1.73;;;;;;;;;;5054357;28;20366;-62
2021/10/16 04:21:03;;;;;;;4.15;1.55;;;;;;;;;;5054498;28;20033;-62
2021/10/16 04:23:29;;;;;;;4.93;1.85;;;;;;;;;;5054471;28;20044;-63
2021/10/16 04:25:55;;;;;;;4.72;1.50;;;;;;;;;;5036627;28;20040;-62
2021/10/16 04:28:21;;;;;;;5.63;1.38;;;;;;;;;;5067762;28;20032;-63
2021/10/16 04:30:47;;;;;;;7.43;1.30;;;;;;;;;;5074433;28;20058;-62
2021/10/16 04:33:13;;;;;;;4.70;1.60;;;;;;;;;;5073361;28;20100;-64
2021/10/16 04:35:41;;;;;;;5.68;1.50;;;;;;;;;;5074042;28;20104;-62
2021/10/16 04:38:07;;;;;;;3.83;1.50;;;;;;;;;;5074293;28;20013;-63
2021/10/16 04:40:33;;;;;;;5.60;1.45;;;;;;;;;;5073935;28;20386;-64
2021/10/16 04:43:01;;;;;;;8.55;1.67;;;;;;;;;;5074244;28;20107;-63
2021/10/16 04:45:28;;;;;;;2.17;1.15;;;;;;;;;;5073779;28;20059;-63
2021/10/16 04:47:54;;;;;;;4.45;1.27;;;;;;;;;;5073865;28;20035;-62
2021/10/16 04:50:20;;;;;;;4.22;1.30;;;;;;;;;;5074099;28;20029;-62
2021/10/16 04:52:45;;;;;;;2.38;1.20;;;;;;;;;;5073819;28;20035;-62
2021/10/16 04:55:11;;;;;;;3.63;1.45;;;;;;;;;;5073834;28;20557;-62
2021/10/16 04:57:37;;;;;;;5.65;1.33;;;;;;;;;;5073681;28;20025;-63
2021/10/16 05:00:04;;;;;;;5.50;1.83;;;;;;;;;;5073365;28;20515;-62
2021/10/16 05:02:30;;;;;;;3.20;1.45;;;;;;;;;;5073535;28;20089;-63
2021/10/16 05:04:56;;;;;;;4.88;1.45;;;;;;;;;;5072586;28;20491;-62
2021/10/16 05:07:22;;;;;;;4.35;1.30;;;;;;;;;;5073666;28;20032;-62
2021/10/16 05:09:49;;;;;;;3.00;1.23;;;;;;;;;;5073630;28;20016;-62
2021/10/16 05:12:16;;;;;;;4.28;1.25;;;;;;;;;;5073509;28;20028;-63
2021/10/16 05:14:42;;;;;;;2.83;1.30;;;;;;;;;;5073499;28;20021;-62
2021/10/16 05:17:08;;;;;;;3.42;1.50;;;;;;;;;;5073549;28;20107;-63
2021/10/16 05:19:34;;;;;;;9.38;1.63;;;;;;;;;;5073264;28;20376;-63
2021/10/16 05:22:00;;;;;;;2.30;1.10;;;;;;;;;;5071707;28;20090;-62
2021/10/16 05:24:26;;;;;;;4.18;1.35;;;;;;;;;;5055515;28;20031;-62
2021/10/16 05:26:52;;;;;;;3.47;1.45;;;;;;;;;;5073110;28;20449;-62
2021/10/16 05:29:18;;;;;;;3.35;1.27;;;;;;;;;;5063826;28;20074;-63
2021/10/16 05:31:44;;;;;;;4.80;1.52;;;;;;;;;;5071858;28;20025;-64
2021/10/16 05:34:10;;;;;;;2.33;1.38;;;;;;;;;;5073249;28;20032;-62
2021/10/16 05:36:36;;;;;;;3.47;1.10;;;;;;;;;;5072893;28;20074;-63
2021/10/16 05:39:01;;;;;;;2.92;1.23;;;;;;;;;;5071795;28;20035;-64
2021/10/16 05:41:28;;;;;;;3.63;1.25;;;;;;;;;;5072765;28;20097;-62
2021/10/16 05:43:54;;;;;;;3.60;1.73;;;;;;;;;;5072969;28;20422;-62
2021/10/16 05:46:19;;;;;;;2.30;1.35;;;;;;;;;;5072634;28;20427;-65
2021/10/16 05:48:45;;;;;;;9.88;1.50;;;;;;;;;;5072758;28;20035;-64
2021/10/16 05:51:11;;;;;;;3.65;1.30;;;;;;;;;;5055099;28;20051;-63
2021/10/16 05:53:37;;;;;;;4.22;1.20;;;;;;;;;;5073087;28;20053;-63
2021/10/16 05:56:04;;;;;;;2.42;1.10;;;;;;;;;;5050694;28;20028;-63
2021/10/16 05:58:29;;;;;;;4.22;1.30;;;;;;;;;;5052642;28;20073;-63
2021/10/16 06:00:55;;;;;;;2.90;1.20;;;;;;;;;;5052464;28;20072;-63
2021/10/16 06:03:21;;;;;;;7.90;1.50;;;;;;;;;;5052780;28;20021;-63
2021/10/16 06:05:47;;;;;;;4.18;1.25;;;;;;;;;;5052721;28;20461;-62
2021/10/16 06:08:13;;;;;;;3.00;1.35;;;;;;;;;;5052674;28;20013;-63
2021/10/16 06:10:39;;;;;;;5.00;1.10;;;;;;;;;;5052535;28;20024;-62
2021/10/16 06:13:05;;;;;;;5.68;1.42;;;;;;;;;;5052480;28;20021;-63
2021/10/16 06:15:31;;;;;;;4.18;1.25;;;;;;;;;;5052298;28;20087;-64
2021/10/16 06:17:57;;;;;;;6.30;1.20;;;;;;;;;;5052401;28;20339;-62
2021/10/16 06:20:29;;;;;;;2.25;1.10;;;;;;;;;;5065939;28;20058;-63
2021/10/16 06:22:55;;;;;;;3.05;1.27;;;;;;;;;;5054415;28;20384;-63
2021/10/16 06:25:21;;;;;;;4.60;1.45;;;;;;;;;;5072369;28;20526;-62
2021/10/16 06:27:47;;;;;;;6.28;1.30;;;;;;;;;;5072277;28;20086;-61
2021/10/16 06:30:13;;;;;;;3.85;1.20;;;;;;;;;;5071246;28;20103;-62
2021/10/16 06:32:39;;;;;;;13.07;2.10;;;;;;;;;;5073708;28;20024;-62
2021/10/16 06:35:06;;;;;;;39.65;3.25;;;;;;;;;;5075214;28;20029;-62
2021/10/16 06:37:31;;;;;;;32.88;3.28;;;;;;;;;;5076354;28;20024;-63
2021/10/16 06:39:57;;;;;;;34.97;2.38;;;;;;;;;;5075347;28;20031;-63
2021/10/16 06:42:23;;;;;;;14.52;1.98;;;;;;;;;;5076187;28;20467;-62
2021/10/16 06:44:49;;;;;;;19.33;2.20;;;;;;;;;;5074809;28;20052;-63
2021/10/16 06:47:15;;;;;;;67.95;3.72;;;;;;;;;;5075621;28;20036;-62
2021/10/16 06:49:41;;;;;;;54.88;3.90;;;;;;;;;;5075937;28;20024;-64
2021/10/16 06:52:07;;;;;;;88.47;4.55;;;;;;;;;;5075540;28;20056;-64
2021/10/16 06:54:33;;;;;;;56.63;3.88;;;;;;;;;;5057848;28;20467;-62
2021/10/16 06:56:59;;;;;;;30.58;2.97;;;;;;;;;;5074582;28;20472;-62
2021/10/16 06:59:25;;;;;;;28.83;2.83;;;;;;;;;;5075439;28;20090;-62
2021/10/16 07:01:51;;;;;;;36.80;3.17;;;;;;;;;;5074930;28;20045;-63
2021/10/16 07:04:17;;;;;;;18.20;3.20;;;;;;;;;;5075677;28;20021;-63
2021/10/16 07:06:43;;;;;;;31.00;2.85;;;;;;;;;;5074801;28;20036;-63
2021/10/16 07:09:09;;;;;;;12.60;2.28;;;;;;;;;;5075602;28;20021;-66
2021/10/16 07:11:35;;;;;;;11.13;2.33;;;;;;;;;;5074519;28;20391;-66
2021/10/16 07:14:01;;;;;;;24.83;2.55;;;;;;;;;;5075922;28;20028;-65
2021/10/16 07:16:27;;;;;;;13.98;2.50;;;;;;;;;;5074581;28;20032;-63
2021/10/16 07:18:53;;;;;;;16.35;2.28;;;;;;;;;;5075113;28;20559;-65
2021/10/16 07:21:19;;;;;;;15.13;2.47;;;;;;;;;;5074556;28;20134;-62
2021/10/16 07:23:45;;;;;;;22.27;2.50;;;;;;;;;;5074836;28;20021;-61
2021/10/16 07:26:12;;;;;;;14.15;2.35;;;;;;;;;;5074015;28;20437;-63
2021/10/16 07:28:38;;;;;;;22.27;2.30;;;;;;;;;;5074921;28;20016;-62
2021/10/16 07:31:04;;;;;;;15.45;2.20;;;;;;;;;;5073110;28;20032;-62
2021/10/16 07:33:30;;;;;;;15.75;2.33;;;;;;;;;;5074308;28;20028;-62
2021/10/16 07:35:56;;;;;;;10.10;1.90;;;;;;;;;;5074008;28;20023;-63
2021/10/16 07:38:22;;;;;;;9.30;2.30;;;;;;;;;;5074953;28;20059;-62
2021/10/16 07:40:48;;;;;;;13.65;2.13;;;;;;;;;;5074098;28;20040;-62
2021/10/16 07:43:14;;;;;;;20.02;2.47;;;;;;;;;;5074650;28;20028;-63
2021/10/16 07:45:40;;;;;;;14.43;2.40;;;;;;;;;;5072947;28;20024;-62
2021/10/16 07:48:06;;;;;;;12.32;2.00;;;;;;;;;;5074673;28;20364;-63
2021/10/16 07:50:33;;;;;;;8.38;2.20;;;;;;;;;;5073732;28;20154;-63
2021/10/16 07:52:59;;;;;;;11.35;2.50;;;;;;;;;;5074693;28;20033;-63
2021/10/16 07:55:25;;;;;;;10.73;2.38;;;;;;;;;;5074471;28;20113;-63
2021/10/16 07:57:51;;;;;;;11.43;2.30;;;;;;;;;;5055880;28;20059;-62
2021/10/16 08:00:17;;;;;;;9.98;2.00;;;;;;;;;;5074028;28;20074;-63
2021/10/16 08:02:43;;;;;;;7.72;1.80;;;;;;;;;;5073050;28;20375;-62
2021/10/16 08:05:13;;;;;;;9.73;2.45;;;;;;;;;;5073804;28;20055;-63
2021/10/16 08:07:39;;;;;;;8.60;2.42;;;;;;;;;;5069857;28;20039;-63
2021/10/16 08:10:06;;;;;;;6.32;1.75;;;;;;;;;;5074243;28;20468;-63
2021/10/16 08:12:31;;;;;;;8.48;2.00;;;;;;;;;;5072738;28;20107;-65
2021/10/16 08:14:57;;;;;;;11.30;1.70;;;;;;;;;;5073595;28;20175;-64
2021/10/16 08:17:23;;;;;;;6.43;1.80;;;;;;;;;;5072743;28;20028;-63
2021/10/16 08:19:49;;;;;;;8.57;2.05;;;;;;;;;;5073918;28;20031;-63
2021/10/16 08:22:15;;;;;;;7.88;1.90;;;;;;;;;;5073145;28;20115;-65
2021/10/16 08:24:43;;;;;;;7.25;1.98;;;;;;;;;;5074262;28;20021;-63
2021/10/16 08:27:09;;;;;;;8.40;2.03;;;;;;;;;;5072920;28;20131;-63
2021/10/16 08:29:35;;;;;;;6.65;2.03;;;;;;;;;;5073620;28;20025;-63
2021/10/16 08:32:01;;;;;;;7.50;2.17;;;;;;;;;;5072785;28;20453;-63
2021/10/16 08:34:27;;;;;;;6.15;1.80;;;;;;;;;;5073638;28;20027;-63
2021/10/16 08:36:53;;;;;;;7.18;2.00;;;;;;;;;;5073492;28;20037;-63
2021/10/16 08:39:23;;;;;;;6.80;1.92;;;;;;;;;;5073495;28;20369;-63
2021/10/16 08:41:49;;;;;;;6.70;1.85;;;;;;;;;;5073778;28;20029;-63
2021/10/16 08:44:15;;;;;;;6.88;1.60;;;;;;;;;;5072715;28;20368;-63
2021/10/16 08:46:42;;;;;;;5.95;1.85;;;;;;;;;;5073616;28;20468;-63
2021/10/16 08:49:09;;;;;;;6.45;1.90;;;;;;;;;;5054908;28;20499;-63
2021/10/16 08:51:35;;;;;;;6.20;1.90;;;;;;;;;;5073679;28;20029;-63
2021/10/16 08:54:01;;;;;;;4.93;1.77;;;;;;;;;;5072803;28;20471;-63
2021/10/16 08:56:27;;;;;;;8.35;1.80;;;;;;;;;;5073656;28;20121;-63
2021/10/16 08:58:53;;;;;;;4.47;1.50;;;;;;;;;;5071804;28;20048;-63
2021/10/16 09:01:19;;;;;;;7.18;1.80;;;;;;;;;;5073136;28;20036;-63
2021/10/16 09:03:57;;;;;;;6.53;1.85;;;;;;;;;;5072494;28;20029;-64
2021/10/16 09:06:27;;;;;;;6.80;1.98;;;;;;;;;;5073744;28;20104;-66
2021/10/16 09:08:55;;;;;;;7.75;1.90;;;;;;;;;;5056358;28;20102;-66
2021/10/16 09:11:44;;;;;;;5.95;2.00;;;;;;;;;;5053355;28;20021;-64
2021/10/16 09:14:11;;;;;;;7.57;2.15;;;;;;;;;;5071153;28;20024;-63
2021/10/16 09:16:40;;;;;;;4.25;1.52;;;;;;;;;;5073066;28;20017;-64
2021/10/16 09:19:11;;;;;;;6.15;1.88;;;;;;;;;;5072069;28;20059;-63
2021/10/16 09:21:43;;;;;;;7.43;1.80;;;;;;;;;;5073393;28;20037;-63
2021/10/16 09:24:14;;;;;;;16.97;2.00;;;;;;;;;;5071947;28;20049;-63
2021/10/16 09:26:44;;;;;;;21.35;2.00;;;;;;;;;;5072924;28;20103;-63
2021/10/16 09:29:10;;;;;;;8.13;1.73;;;;;;;;;;5070965;28;20024;-63
2021/10/16 09:31:41;;;;;;;8.93;1.90;;;;;;;;;;5072775;28;20028;-63
2021/10/16 09:34:07;;;;;;;13.32;1.92;;;;;;;;;;5071750;28;20024;-63
2021/10/16 09:36:34;;;;;;;7.70;1.60;;;;;;;;;;5072866;28;20099;-63
2021/10/16 09:39:01;;;;;;;12.73;2.03;;;;;;;;;;5071683;28;20111;-63
2021/10/16 09:41:27;;;;;;;6.30;1.95;;;;;;;;;;5072488;28;20106;-63
2021/10/16 09:43:53;;;;;;;5.22;1.70;;;;;;;;;;5071303;28;20411;-62
2021/10/16 09:46:19;;;;;;;6.88;2.35;;;;;;;;;;5072688;28;20027;-63
2021/10/16 09:48:46;;;;;;;8.55;1.58;;;;;;;;;;5071691;28;20025;-63
2021/10/16 09:51:14;;;;;;;5.22;2.08;;;;;;;;;;5072760;28;20067;-63
2021/10/16 09:53:42;;;;;;;5.43;1.98;;;;;;;;;;5053912;28;20032;-63
2021/10/16 09:56:08;;;;;;;21.05;1.85;;;;;;;;;;5072621;28;20085;-63
2021/10/16 09:58:37;;;;;;;6.30;1.73;;;;;;;;;;5071407;28;20534;-63
2021/10/16 10:01:03;;;;;;;6.50;1.90;;;;;;;;;;5072644;28;20539;-64
2021/10/16 10:03:32;;;;;;;4.95;1.80;;;;;;;;;;5070982;28;20123;-63
2021/10/16 10:05:58;;;;;;;6.30;1.95;;;;;;;;;;5072556;28;20024;-63
2021/10/16 10:08:24;;;;;;;10.02;1.77;;;;;;;;;;5070922;28;20387;-63
2021/10/16 10:10:51;;;;;;;7.53;1.77;;;;;;;;;;5072813;28;20100;-63
2021/10/16 10:13:18;;;;;;;7.30;1.70;;;;;;;;;;5071088;28;20445;-63
2021/10/16 10:15:44;;;;;;;8.07;2.20;;;;;;;;;;5072448;28;20100;-63
2021/10/16 10:20:57;;;;;;;5.15;1.88;;;;;;;;;;5072601;28;20086;-63
2021/10/16 10:23:24;;;;;;;7.47;1.75;;;;;;;;;;5071230;28;20039;-63
2021/10/16 10:25:50;;;;;;;6.78;2.20;;;;;;;;;;5072192;28;20032;-63
2021/10/16 10:28:18;;;;;;;3.92;1.60;;;;;;;;;;5063857;28;20104;-63
2021/10/16 10:30:46;;;;;;;3.75;1.58;;;;;;;;;;5072465;28;20032;-64
2021/10/16 10:33:15;;;;;;;12.65;2.00;;;;;;;;;;5071475;28;20041;-64
2021/10/16 10:35:47;;;;;;;6.47;1.80;;;;;;;;;;5071956;28;20029;-64
2021/10/16 10:38:29;;;;;;;8.98;2.05;;;;;;;;;;5070888;28;20024;-63
2021/10/16 10:40:55;;;;;;;8.02;1.98;;;;;;;;;;5072145;28;20036;-63
2021/10/16 10:43:37;;;;;;;9.68;1.95;;;;;;;;;;5059600;28;20025;-64
2021/10/16 10:46:13;;;;;;;2.80;1.43;;;;;;;;;;5052202;28;20522;-63
2021/10/16 10:48:44;;;;;;;6.68;1.75;;;;;;;;;;5065867;28;20123;-63
2021/10/16 10:51:10;;;;;;;8.73;1.80;;;;;;;;;;5072276;28;20430;-63
2021/10/16 10:53:38;;;;;;;5.93;2.00;;;;;;;;;;5057346;28;20132;-63
2021/10/16 10:56:08;;;;;;;6.13;1.70;;;;;;;;;;5052196;28;20033;-63
2021/10/16 10:58:54;;;;;;;25.52;3.00;;;;;;;;;;5065080;28;20211;-63
2021/10/16 11:01:38;;;;;;;10.48;2.00;;;;;;;;;;5071998;28;20032;-64
2021/10/16 11:04:04;;;;;;;15.85;2.03;;;;;;;;;;5053074;28;20127;-65
2021/10/16 11:06:30;;;;;;;13.00;2.15;;;;;;;;;;5033995;28;20409;-64
2021/10/16 11:09:13;;;;;;;8.93;2.33;;;;;;;;;;5068293;28;20036;-64
2021/10/16 11:11:46;;;;;;;11.93;2.13;;;;;;;;;;5072201;28;20028;-63
2021/10/16 11:14:11;;;;;;;;;;;;;;;;;;5071003;28;20499;-64
2021/10/16 11:16:52;;;;;;;12.20;2.30;;;;;;;;;;5071871;28;19905;-64
2021/10/16 11:19:18;;;;;;;10.90;2.53;;;;;;;;;;5071953;28;20415;-64
2021/10/16 11:21:50;;;;;;;15.85;2.17;;;;;;;;;;5075581;28;20067;-64
2021/10/16 11:24:16;;;;;;;10.52;3.05;;;;;;;;;;5074158;28;20368;-63
2021/10/16 11:26:51;;;;;;;4.93;1.77;;;;;;;;;;5075133;28;20025;-65
2021/10/16 11:29:27;;;;;;;8.55;2.58;;;;;;;;;;5074204;28;20024;-65
2021/10/16 11:32:09;;;;;;;10.77;2.00;;;;;;;;;;5075124;28;20025;-64
2021/10/16 11:34:35;;;;;;;10.93;2.38;;;;;;;;;;5074959;28;20025;-64
2021/10/16 11:37:01;;;;;;;9.55;2.42;;;;;;;;;;5074269;28;20029;-63
2021/10/16 11:39:29;;;;;;;10.73;2.33;;;;;;;;;;5075137;28;20483;-63
2021/10/16 11:41:56;;;;;;;12.18;2.60;;;;;;;;;;5073969;28;20111;-64
2021/10/16 11:44:22;;;;;;;9.13;2.35;;;;;;;;;;5074851;28;20048;-64
2021/10/16 11:47:06;;;;;;;12.23;2.38;;;;;;;;;;5074851;28;20059;-64
2021/10/16 11:49:32;;;;;;;14.75;2.75;;;;;;;;;;5054834;28;20468;-65
2021/10/16 11:51:59;;;;;;;15.40;2.33;;;;;;;;;;5054853;28;20017;-63
2021/10/16 11:54:26;;;;;;;16.38;3.00;;;;;;;;;;5055159;28;20037;-64
2021/10/16 11:56:59;;;;;;;10.65;2.50;;;;;;;;;;5036741;28;20025;-64
2021/10/16 11:59:25;;;;;;;16.27;2.70;;;;;;;;;;5054541;28;20052;-64
2021/10/16 12:01:51;;;;;;;13.57;3.03;;;;;;;;;;5054603;28;20440;-65
2021/10/16 12:04:17;;;;;;;22.05;2.90;;;;;;;;;;5073952;28;20419;-64
2021/10/16 12:06:43;;;;;;;17.70;3.20;;;;;;;;;;5074388;28;20074;-64
2021/10/16 12:09:12;;;;;;;21.02;3.60;;;;;;;;;;5073715;28;20078;-64
2021/10/16 12:11:39;;;;;;;23.38;3.15;;;;;;;;;;5074522;28;20027;-64
2021/10/16 12:14:06;;;;;;;21.67;3.67;;;;;;;;;;5073177;28;20021;-65
2021/10/16 12:16:36;;;;;;;17.40;2.83;;;;;;;;;;5074501;28;20028;-64
2021/10/16 12:19:12;;;;;;;17.13;3.40;;;;;;;;;;5073569;28;20097;-64
2021/10/16 12:21:42;;;;;;;12.65;3.03;;;;;;;;;;5074354;28;20099;-64
2021/10/16 12:24:08;;;;;;;16.15;2.97;;;;;;;;;;5073402;28;20040;-65
2021/10/16 12:26:36;;;;;;;14.85;3.03;;;;;;;;;;5074130;28;20036;-64
2021/10/16 12:29:25;;;;;;;13.20;2.83;;;;;;;;;;5073011;28;20405;-65
2021/10/16 12:31:52;;;;;;;17.27;3.08;;;;;;;;;;5070744;28;20042;-64
2021/10/16 12:34:27;;;;;;;14.85;3.55;;;;;;;;;;5073091;28;20107;-65
2021/10/16 12:37:01;;;;;;;15.77;2.92;;;;;;;;;;5054965;28;20035;-64
2021/10/16 12:39:34;;;;;;;14.90;2.95;;;;;;;;;;5073512;28;20115;-64
2021/10/16 12:42:14;;;;;;;14.30;2.85;;;;;;;;;;5072573;28;20052;-64
2021/10/16 12:44:42;;;;;;;19.42;3.15;;;;;;;;;;5073913;28;20027;-64
2021/10/16 12:47:16;;;;;;;17.92;3.05;;;;;;;;;;5070473;28;20109;-64
2021/10/16 12:49:49;;;;;;;14.70;3.05;;;;;;;;;;5053957;28;20032;-64
2021/10/16 12:52:35;;;;;;;9.75;2.67;;;;;;;;;;5056152;28;20052;-64
2021/10/16 12:55:18;;;;;;;11.75;2.30;;;;;;;;;;5073469;28;20028;-64
2021/10/16 12:58:01;;;;;;;11.07;2.70;;;;;;;;;;5066209;28;20037;-64
2021/10/16 13:00:28;;;;;;;9.93;2.65;;;;;;;;;;5053427;28;20048;-64
2021/10/16 13:02:54;;;;;;;12.48;3.30;;;;;;;;;;5061102;28;20064;-64
2021/10/16 13:05:21;;;;;;;9.65;2.40;;;;;;;;;;5073538;28;20024;-64
2021/10/16 13:07:47;;;;;;;12.93;2.72;;;;;;;;;;5072328;28;20016;-64
2021/10/16 13:10:14;;;;;;;10.88;2.53;;;;;;;;;;5073344;28;20499;-64
2021/10/16 13:12:44;;;;;;;11.75;2.33;;;;;;;;;;5072045;28;20036;-64
2021/10/16 13:15:10;;;;;;;12.50;3.03;;;;;;;;;;5073315;28;20165;-64
2021/10/16 13:17:36;;;;;;;9.27;2.53;;;;;;;;;;5071940;28;20532;-64
2021/10/16 13:20:03;;;;;;;11.68;2.60;;;;;;;;;;5072935;28;20146;-64
2021/10/16 13:22:29;;;;;;;15.57;2.83;;;;;;;;;;5067819;28;20053;-64
2021/10/16 13:24:55;;;;;;;8.88;2.55;;;;;;;;;;5053018;28;20106;-64
2021/10/16 13:27:21;;;;;;;12.95;3.10;;;;;;;;;;5038558;28;20456;-64
2021/10/16 13:29:47;;;;;;;19.02;3.50;;;;;;;;;;5073197;28;20039;-64
2021/10/16 13:32:14;;;;;;;11.07;2.58;;;;;;;;;;5072019;28;20032;-64
2021/10/16 13:34:40;;;;;;;10.60;2.35;;;;;;;;;;5073008;28;20456;-65
2021/10/16 13:37:06;;;;;;;10.90;2.35;;;;;;;;;;5070755;28;20028;-64
2021/10/16 13:39:32;;;;;;;10.40;2.38;;;;;;;;;;5057076;28;20027;-64
2021/10/16 13:41:59;;;;;;;8.45;2.38;;;;;;;;;;5052468;28;20028;-64
2021/10/16 13:44:25;;;;;;;10.48;2.83;;;;;;;;;;5072015;28;20368;-64
2021/10/16 13:46:51;;;;;;;8.43;2.08;;;;;;;;;;5072268;28;20052;-64
2021/10/16 13:49:17;;;;;;;12.07;2.33;;;;;;;;;;5071238;28;20486;-65
2021/10/16 13:51:44;;;;;;;7.38;2.15;;;;;;;;;;5072975;28;20103;-64
2021/10/16 13:54:10;;;;;;;8.65;2.33;;;;;;;;;;5071394;28;20120;-64
2021/10/16 13:56:36;;;;;;;7.60;2.40;;;;;;;;;;5072285;28;20368;-64
2021/10/16 13:59:02;;;;;;;11.50;2.25;;;;;;;;;;5071450;28;20040;-64
2021/10/16 14:01:28;;;;;;;9.30;2.55;;;;;;;;;;5072498;28;20044;-64
2021/10/16 14:03:56;;;;;;;13.48;2.60;;;;;;;;;;5071525;28;20048;-64
2021/10/16 14:06:21;;;;;;;13.20;2.10;;;;;;;;;;5072310;28;20090;-63
2021/10/16 14:08:48;;;;;;;9.15;2.10;;;;;;;;;;5071334;28;20116;-64
2021/10/16 14:11:14;;;;;;;7.00;1.80;;;;;;;;;;5072379;28;20430;-64
2021/10/16 14:13:40;;;;;;;11.45;2.10;;;;;;;;;;5071254;28;20482;-64
2021/10/16 14:16:09;;;;;;;9.60;2.03;;;;;;;;;;5072711;28;20020;-65
2021/10/16 14:18:36;;;;;;;9.20;2.22;;;;;;;;;;5071684;28;20052;-64
2021/10/16 14:21:02;;;;;;;8.77;2.10;;;;;;;;;;5072280;28;20036;-64
2021/10/16 14:23:27;;;;;;;7.40;2.28;;;;;;;;;;5070922;28;20024;-64
2021/10/16 14:25:53;;;;;;;7.32;1.75;;;;;;;;;;5072139;28;20024;-65
2021/10/16 14:28:20;;;;;;;8.60;2.30;;;;;;;;;;5071352;28;20020;-68
2021/10/16 14:30:46;;;;;;;11.55;1.83;;;;;;;;;;5072310;28;20024;-65
2021/10/16 14:33:12;;;;;;;5.68;1.60;;;;;;;;;;5071029;28;20075;-63
2021/10/16 14:35:39;;;;;;;6.57;1.98;;;;;;;;;;5071986;28;20467;-63
2021/10/16 14:38:05;;;;;;;8.48;1.95;;;;;;;;;;5053206;28;20557;-65
2021/10/16 14:40:32;;;;;;;5.35;1.70;;;;;;;;;;5053874;28;20032;-66